sensor_id;sensor_type;location;lat;lon;timestamp;temperature;humidity
19256;DHT22;9762;52.490;13.410;2024-03-02T00:00:51;14.20;94.90
19256;DHT22;9762;52.490;13.410;2024-03-02T00:03:18;14.20;94.90
19256;DHT22;9762;52.490;13.410;2024-03-02T00:05:47;14.30;94.90
19256;DHT22;9762;52.490;13.410;2024-03-02T00:08:21;14.30;94.90
19256;DHT22;9762;52.490;13.410;2024-03-02T00:10:47;14.30;94.90
19256;DHT22;9762;52.490;13.410;2024-03-02T00:13:13;14.30;94.80
19256;DHT22;9762;52.490;13.410;2024-03-02T00:15:46;14.30;94.90
19256;DHT22;9762;52.490;13.410;2024-03-02T00:18:19;14.30;94.90
19256;DHT22;9762;52.490;13.410;2024-03-02T00:20:45;14.30;94.90
19256;DHT22;9762;52.490;13.410;2024-03-02T00:23:15;14.30;95.00
19256;DHT22;9762;52.490;13.410;2024-03-02T00:25:43;14.30;95.00
19256;DHT22;9762;52.490;13.410;2024-03-02T00:28:35;14.30;95.10
19256;DHT22;9762;52.490;13.410;2024-03-02T00:31:11;14.40;95.20
19256;DHT22;9762;52.490;13.410;2024-03-02T00:33:41;14.40;95.20
19256;DHT22;9762;52.490;13.410;2024-03-02T00:36:08;14.40;95.20
19256;DHT22;9762;52.490;13.410;2024-03-02T00:38:34;14.40;95.20
19256;DHT22;9762;52.490;13.410;2024-03-02T00:41:07;14.40;95.10
19256;DHT22;9762;52.490;13.410;2024-03-02T00:46:23;14.40;95.20
19256;DHT22;9762;52.490;13.410;2024-03-02T00:48:57;14.40;95.10
19256;DHT22;9762;52.490;13.410;2024-03-02T00:51:24;14.40;95.20
19256;DHT22;9762;52.490;13.410;2024-03-02T00:53:52;14.40;95.10
19256;DHT22;9762;52.490;13.410;2024-03-02T00:56:18;14.40;95.20
19256;DHT22;9762;52.490;13.410;2024-03-02T00:58:44;14.40;95.20
19256;DHT22;9762;52.490;13.410;2024-03-02T01:01:10;14.40;95.30
19256;DHT22;9762;52.490;13.410;2024-03-02T01:03:35;14.40;95.20
19256;DHT22;9762;52.490;13.410;2024-03-02T01:06:02;14.40;95.20
19256;DHT22;9762;52.490;13.410;2024-03-02T01:08:28;14.40;95.30
19256;DHT22;9762;52.490;13.410;2024-03-02T01:10:54;14.40;95.40
19256;DHT22;9762;52.490;13.410;2024-03-02T01:13:21;14.40;95.40
19256;DHT22;9762;52.490;13.410;2024-03-02T01:15:47;14.40;95.50
19256;DHT22;9762;52.490;13.410;2024-03-02T01:18:13;14.40;95.50
19256;DHT22;9762;52.490;13.410;2024-03-02T01:20:38;14.40;95.50
19256;DHT22;9762;52.490;13.410;2024-03-02T01:23:04;14.50;95.50
19256;DHT22;9762;52.490;13.410;2024-03-02T01:25:30;14.50;95.60
19256;DHT22;9762;52.490;13.410;2024-03-02T01:27:55;14.50;95.60
19256;DHT22;9762;52.490;13.410;2024-03-02T01:30:21;14.50;95.60
19256;DHT22;9762;52.490;13.410;2024-03-02T01:32:47;14.50;95.70
19256;DHT22;9762;52.490;13.410;2024-03-02T01:35:12;14.50;95.70
19256;DHT22;9762;52.490;13.410;2024-03-02T01:37:38;14.50;95.80
19256;DHT22;9762;52.490;13.410;2024-03-02T01:40:05;14.50;95.80
19256;DHT22;9762;52.490;13.410;2024-03-02T01:42:38;14.50;95.80
19256;DHT22;9762;52.490;13.410;2024-03-02T01:45:05;14.50;95.90
19256;DHT22;9762;52.490;13.410;2024-03-02T01:47:31;14.50;96.00
19256;DHT22;9762;52.490;13.410;2024-03-02T01:49:58;14.50;96.00
19256;DHT22;9762;52.490;13.410;2024-03-02T01:52:23;14.50;96.00
19256;DHT22;9762;52.490;13.410;2024-03-02T01:54:49;14.50;96.10
19256;DHT22;9762;52.490;13.410;2024-03-02T01:57:15;14.40;96.20
19256;DHT22;9762;52.490;13.410;2024-03-02T01:59:41;14.40;96.20
19256;DHT22;9762;52.490;13.410;2024-03-02T02:02:07;14.40;96.30
19256;DHT22;9762;52.490;13.410;2024-03-02T02:04:33;14.50;96.40
19256;DHT22;9762;52.490;13.410;2024-03-02T02:06:59;14.40;96.40
19256;DHT22;9762;52.490;13.410;2024-03-02T02:09:25;14.50;96.40
19256;DHT22;9762;52.490;13.410;2024-03-02T02:11:51;14.50;96.50
19256;DHT22;9762;52.490;13.410;2024-03-02T02:14:17;14.50;96.50
19256;DHT22;9762;52.490;13.410;2024-03-02T02:16:42;14.50;96.50
19256;DHT22;9762;52.490;13.410;2024-03-02T02:19:08;14.50;96.60
19256;DHT22;9762;52.490;13.410;2024-03-02T02:21:34;14.50;96.60
19256;DHT22;9762;52.490;13.410;2024-03-02T02:24:00;14.50;96.60
19256;DHT22;9762;52.490;13.410;2024-03-02T02:26:28;14.40;96.70
19256;DHT22;9762;52.490;13.410;2024-03-02T02:28:54;14.40;96.70
19256;DHT22;9762;52.490;13.410;2024-03-02T02:31:20;14.50;96.80
19256;DHT22;9762;52.490;13.410;2024-03-02T02:33:45;14.40;96.70
19256;DHT22;9762;52.490;13.410;2024-03-02T02:36:11;14.40;96.80
19256;DHT22;9762;52.490;13.410;2024-03-02T02:38:40;14.40;96.80
19256;DHT22;9762;52.490;13.410;2024-03-02T02:41:08;14.40;97.00
19256;DHT22;9762;52.490;13.410;2024-03-02T02:43:34;14.40;97.10
19256;DHT22;9762;52.490;13.410;2024-03-02T02:45:59;14.40;97.10
19256;DHT22;9762;52.490;13.410;2024-03-02T02:48:25;14.40;97.20
19256;DHT22;9762;52.490;13.410;2024-03-02T02:50:50;14.30;97.10
19256;DHT22;9762;52.490;13.410;2024-03-02T02:53:16;14.40;97.20
19256;DHT22;9762;52.490;13.410;2024-03-02T02:55:42;14.40;97.30
19256;DHT22;9762;52.490;13.410;2024-03-02T02:58:09;14.40;97.30
19256;DHT22;9762;52.490;13.410;2024-03-02T03:00:35;14.40;97.40
19256;DHT22;9762;52.490;13.410;2024-03-02T03:03:02;14.40;97.40
19256;DHT22;9762;52.490;13.410;2024-03-02T03:05:28;14.40;97.50
19256;DHT22;9762;52.490;13.410;2024-03-02T03:07:54;14.40;97.50
19256;DHT22;9762;52.490;13.410;2024-03-02T03:10:19;14.40;97.50
19256;DHT22;9762;52.490;13.410;2024-03-02T03:12:47;14.40;97.50
19256;DHT22;9762;52.490;13.410;2024-03-02T03:15:13;14.40;97.60
19256;DHT22;9762;52.490;13.410;2024-03-02T03:17:40;14.40;97.70
19256;DHT22;9762;52.490;13.410;2024-03-02T03:20:06;14.40;97.80
19256;DHT22;9762;52.490;13.410;2024-03-02T03:22:35;14.40;97.80
19256;DHT22;9762;52.490;13.410;2024-03-02T03:25:01;14.40;97.90
19256;DHT22;9762;52.490;13.410;2024-03-02T03:27:27;14.40;98.00
19256;DHT22;9762;52.490;13.410;2024-03-02T03:29:53;14.40;98.00
19256;DHT22;9762;52.490;13.410;2024-03-02T03:32:19;14.40;98.00
19256;DHT22;9762;52.490;13.410;2024-03-02T03:34:45;14.40;98.10
19256;DHT22;9762;52.490;13.410;2024-03-02T03:37:11;14.40;98.40
19256;DHT22;9762;52.490;13.410;2024-03-02T03:39:36;14.40;98.10
19256;DHT22;9762;52.490;13.410;2024-03-02T03:42:02;14.40;98.20
19256;DHT22;9762;52.490;13.410;2024-03-02T03:44:28;14.40;98.20
19256;DHT22;9762;52.490;13.410;2024-03-02T03:46:53;14.40;98.20
19256;DHT22;9762;52.490;13.410;2024-03-02T03:49:19;14.40;98.30
19256;DHT22;9762;52.490;13.410;2024-03-02T03:51:45;14.40;98.30
19256;DHT22;9762;52.490;13.410;2024-03-02T03:54:10;14.40;98.30
19256;DHT22;9762;52.490;13.410;2024-03-02T03:56:37;14.40;98.40
19256;DHT22;9762;52.490;13.410;2024-03-02T03:59:03;14.40;98.40
19256;DHT22;9762;52.490;13.410;2024-03-02T04:01:30;14.50;98.40
19256;DHT22;9762;52.490;13.410;2024-03-02T04:03:55;14.50;98.40
19256;DHT22;9762;52.490;13.410;2024-03-02T04:06:21;14.50;98.40
19256;DHT22;9762;52.490;13.410;2024-03-02T04:08:47;14.50;98.30
19256;DHT22;9762;52.490;13.410;2024-03-02T04:11:12;14.50;98.30
19256;DHT22;9762;52.490;13.410;2024-03-02T04:13:38;14.50;98.30
19256;DHT22;9762;52.490;13.410;2024-03-02T04:16:04;14.50;98.20
19256;DHT22;9762;52.490;13.410;2024-03-02T04:18:30;14.50;98.20
19256;DHT22;9762;52.490;13.410;2024-03-02T04:20:57;14.50;98.20
19256;DHT22;9762;52.490;13.410;2024-03-02T04:23:25;14.50;98.30
19256;DHT22;9762;52.490;13.410;2024-03-02T04:25:50;14.50;98.30
19256;DHT22;9762;52.490;13.410;2024-03-02T04:28:16;14.50;98.30
19256;DHT22;9762;52.490;13.410;2024-03-02T04:30:42;14.50;98.30
19256;DHT22;9762;52.490;13.410;2024-03-02T04:33:07;14.50;98.30
19256;DHT22;9762;52.490;13.410;2024-03-02T04:35:36;14.50;98.30
19256;DHT22;9762;52.490;13.410;2024-03-02T04:38:01;14.50;98.40
19256;DHT22;9762;52.490;13.410;2024-03-02T04:40:27;14.50;98.40
19256;DHT22;9762;52.490;13.410;2024-03-02T04:42:52;14.50;98.50
19256;DHT22;9762;52.490;13.410;2024-03-02T04:45:18;14.50;98.60
19256;DHT22;9762;52.490;13.410;2024-03-02T04:47:44;14.50;98.70
19256;DHT22;9762;52.490;13.410;2024-03-02T04:50:09;14.50;98.70
19256;DHT22;9762;52.490;13.410;2024-03-02T04:52:36;14.50;98.70
19256;DHT22;9762;52.490;13.410;2024-03-02T04:55:01;14.50;98.80
19256;DHT22;9762;52.490;13.410;2024-03-02T04:57:42;14.50;98.80
19256;DHT22;9762;52.490;13.410;2024-03-02T05:00:09;14.50;98.80
19256;DHT22;9762;52.490;13.410;2024-03-02T05:02:35;14.50;98.80
19256;DHT22;9762;52.490;13.410;2024-03-02T05:05:00;14.50;98.90
19256;DHT22;9762;52.490;13.410;2024-03-02T05:07:26;14.50;99.00
19256;DHT22;9762;52.490;13.410;2024-03-02T05:09:52;14.50;99.00
19256;DHT22;9762;52.490;13.410;2024-03-02T05:12:17;14.50;99.00
19256;DHT22;9762;52.490;13.410;2024-03-02T05:15:01;14.50;99.10
19256;DHT22;9762;52.490;13.410;2024-03-02T05:17:27;14.50;99.10
19256;DHT22;9762;52.490;13.410;2024-03-02T05:19:53;14.40;99.10
19256;DHT22;9762;52.490;13.410;2024-03-02T05:22:18;14.50;99.20
19256;DHT22;9762;52.490;13.410;2024-03-02T05:24:44;14.50;99.20
19256;DHT22;9762;52.490;13.410;2024-03-02T05:27:09;14.50;99.20
19256;DHT22;9762;52.490;13.410;2024-03-02T05:29:35;14.40;99.10
19256;DHT22;9762;52.490;13.410;2024-03-02T05:32:01;14.40;99.10
19256;DHT22;9762;52.490;13.410;2024-03-02T05:34:26;14.40;99.10
19256;DHT22;9762;52.490;13.410;2024-03-02T05:36:52;14.40;99.10
19256;DHT22;9762;52.490;13.410;2024-03-02T05:39:17;14.30;99.20
19256;DHT22;9762;52.490;13.410;2024-03-02T05:41:43;14.30;99.20
19256;DHT22;9762;52.490;13.410;2024-03-02T05:44:09;14.20;99.30
19256;DHT22;9762;52.490;13.410;2024-03-02T05:46:34;14.20;99.30
19256;DHT22;9762;52.490;13.410;2024-03-02T05:49:00;14.20;99.40
19256;DHT22;9762;52.490;13.410;2024-03-02T05:51:26;14.20;99.30
19256;DHT22;9762;52.490;13.410;2024-03-02T05:53:52;14.20;99.20
19256;DHT22;9762;52.490;13.410;2024-03-02T05:56:17;14.20;99.30
19256;DHT22;9762;52.490;13.410;2024-03-02T05:58:43;14.20;99.30
19256;DHT22;9762;52.490;13.410;2024-03-02T06:01:23;14.20;99.30
19256;DHT22;9762;52.490;13.410;2024-03-02T06:03:55;14.20;99.30
19256;DHT22;9762;52.490;13.410;2024-03-02T06:06:21;14.20;99.20
19256;DHT22;9762;52.490;13.410;2024-03-02T06:08:46;14.20;99.10
19256;DHT22;9762;52.490;13.410;2024-03-02T06:11:12;14.20;99.20
19256;DHT22;9762;52.490;13.410;2024-03-02T06:13:37;14.20;99.20
19256;DHT22;9762;52.490;13.410;2024-03-02T06:16:03;14.30;99.20
19256;DHT22;9762;52.490;13.410;2024-03-02T06:18:29;14.30;99.10
19256;DHT22;9762;52.490;13.410;2024-03-02T06:20:54;14.30;99.10
19256;DHT22;9762;52.490;13.410;2024-03-02T06:23:20;14.30;99.10
19256;DHT22;9762;52.490;13.410;2024-03-02T06:25:46;14.30;99.10
19256;DHT22;9762;52.490;13.410;2024-03-02T06:28:11;14.30;99.00
19256;DHT22;9762;52.490;13.410;2024-03-02T06:30:37;14.30;99.00
19256;DHT22;9762;52.490;13.410;2024-03-02T06:33:03;14.30;98.80
19256;DHT22;9762;52.490;13.410;2024-03-02T06:35:29;14.30;98.80
19256;DHT22;9762;52.490;13.410;2024-03-02T06:37:55;14.30;98.80
19256;DHT22;9762;52.490;13.410;2024-03-02T06:40:20;14.30;98.90
19256;DHT22;9762;52.490;13.410;2024-03-02T06:42:47;14.40;98.80
19256;DHT22;9762;52.490;13.410;2024-03-02T06:45:12;14.40;98.70
19256;DHT22;9762;52.490;13.410;2024-03-02T06:47:38;14.50;98.60
19256;DHT22;9762;52.490;13.410;2024-03-02T06:50:04;14.50;98.50
19256;DHT22;9762;52.490;13.410;2024-03-02T06:52:30;14.60;98.30
19256;DHT22;9762;52.490;13.410;2024-03-02T06:54:55;14.70;98.30
19256;DHT22;9762;52.490;13.410;2024-03-02T06:57:21;14.70;98.10
19256;DHT22;9762;52.490;13.410;2024-03-02T06:59:46;14.80;98.10
19256;DHT22;9762;52.490;13.410;2024-03-02T07:02:15;14.80;97.90
19256;DHT22;9762;52.490;13.410;2024-03-02T07:04:41;14.80;97.60
19256;DHT22;9762;52.490;13.410;2024-03-02T07:07:06;14.90;97.60
19256;DHT22;9762;52.490;13.410;2024-03-02T07:09:32;14.90;97.50
19256;DHT22;9762;52.490;13.410;2024-03-02T07:11:58;14.90;97.50
19256;DHT22;9762;52.490;13.410;2024-03-02T07:14:23;14.90;97.90
19256;DHT22;9762;52.490;13.410;2024-03-02T07:17:09;14.90;97.90
19256;DHT22;9762;52.490;13.410;2024-03-02T07:19:35;15.00;97.70
19256;DHT22;9762;52.490;13.410;2024-03-02T07:22:01;15.00;97.80
19256;DHT22;9762;52.490;13.410;2024-03-02T07:24:31;15.00;97.60
19256;DHT22;9762;52.490;13.410;2024-03-02T07:26:56;15.00;97.60
19256;DHT22;9762;52.490;13.410;2024-03-02T07:29:22;15.00;97.40
19256;DHT22;9762;52.490;13.410;2024-03-02T07:31:47;15.00;97.40
19256;DHT22;9762;52.490;13.410;2024-03-02T07:34:13;15.10;97.30
19256;DHT22;9762;52.490;13.410;2024-03-02T07:36:39;15.10;97.30
19256;DHT22;9762;52.490;13.410;2024-03-02T07:39:04;15.10;97.30
19256;DHT22;9762;52.490;13.410;2024-03-02T07:41:30;15.20;97.00
19256;DHT22;9762;52.490;13.410;2024-03-02T07:43:56;15.20;96.90
19256;DHT22;9762;52.490;13.410;2024-03-02T07:46:22;15.20;96.90
19256;DHT22;9762;52.490;13.410;2024-03-02T07:48:47;15.30;96.70
19256;DHT22;9762;52.490;13.410;2024-03-02T07:51:13;15.30;96.50
19256;DHT22;9762;52.490;13.410;2024-03-02T07:53:39;15.30;96.40
19256;DHT22;9762;52.490;13.410;2024-03-02T07:56:05;15.30;96.30
19256;DHT22;9762;52.490;13.410;2024-03-02T07:58:31;15.30;96.20
19256;DHT22;9762;52.490;13.410;2024-03-02T08:00:59;15.30;96.20
19256;DHT22;9762;52.490;13.410;2024-03-02T08:03:26;15.20;96.20
19256;DHT22;9762;52.490;13.410;2024-03-02T08:05:52;15.30;96.30
19256;DHT22;9762;52.490;13.410;2024-03-02T08:08:18;15.30;96.30
19256;DHT22;9762;52.490;13.410;2024-03-02T08:10:44;15.20;96.30
19256;DHT22;9762;52.490;13.410;2024-03-02T08:13:09;15.20;96.40
19256;DHT22;9762;52.490;13.410;2024-03-02T08:15:35;15.30;96.50
19256;DHT22;9762;52.490;13.410;2024-03-02T08:18:01;15.20;96.30
19256;DHT22;9762;52.490;13.410;2024-03-02T08:20:27;15.20;96.20
19256;DHT22;9762;52.490;13.410;2024-03-02T08:22:52;15.20;96.20
19256;DHT22;9762;52.490;13.410;2024-03-02T08:25:20;15.20;96.20
19256;DHT22;9762;52.490;13.410;2024-03-02T08:27:46;15.20;96.40
19256;DHT22;9762;52.490;13.410;2024-03-02T08:30:12;15.20;96.70
19256;DHT22;9762;52.490;13.410;2024-03-02T08:32:38;15.20;96.50
19256;DHT22;9762;52.490;13.410;2024-03-02T08:35:04;15.30;96.40
19256;DHT22;9762;52.490;13.410;2024-03-02T08:37:30;15.20;96.20
19256;DHT22;9762;52.490;13.410;2024-03-02T08:39:56;15.20;96.20
19256;DHT22;9762;52.490;13.410;2024-03-02T08:42:22;15.30;96.00
19256;DHT22;9762;52.490;13.410;2024-03-02T08:44:48;15.30;95.90
19256;DHT22;9762;52.490;13.410;2024-03-02T08:47:14;15.30;96.10
19256;DHT22;9762;52.490;13.410;2024-03-02T08:49:39;15.30;95.90
19256;DHT22;9762;52.490;13.410;2024-03-02T08:52:05;15.30;95.70
19256;DHT22;9762;52.490;13.410;2024-03-02T08:54:31;15.30;95.70
19256;DHT22;9762;52.490;13.410;2024-03-02T08:56:57;15.40;95.80
19256;DHT22;9762;52.490;13.410;2024-03-02T08:59:23;15.40;95.70
19256;DHT22;9762;52.490;13.410;2024-03-02T09:01:50;15.40;95.60
19256;DHT22;9762;52.490;13.410;2024-03-02T09:04:16;15.40;95.60
19256;DHT22;9762;52.490;13.410;2024-03-02T09:06:42;15.40;95.70
19256;DHT22;9762;52.490;13.410;2024-03-02T09:09:08;15.40;95.60
19256;DHT22;9762;52.490;13.410;2024-03-02T09:11:33;15.40;95.60
19256;DHT22;9762;52.490;13.410;2024-03-02T09:13:59;15.40;95.70
19256;DHT22;9762;52.490;13.410;2024-03-02T09:16:25;15.40;95.60
19256;DHT22;9762;52.490;13.410;2024-03-02T09:18:56;15.40;95.70
19256;DHT22;9762;52.490;13.410;2024-03-02T09:21:21;15.40;95.70
19256;DHT22;9762;52.490;13.410;2024-03-02T09:23:48;15.40;95.50
19256;DHT22;9762;52.490;13.410;2024-03-02T09:26:14;15.50;95.70
19256;DHT22;9762;52.490;13.410;2024-03-02T09:28:43;15.50;95.90
19256;DHT22;9762;52.490;13.410;2024-03-02T09:31:09;15.50;95.50
19256;DHT22;9762;52.490;13.410;2024-03-02T09:33:35;15.50;95.40
19256;DHT22;9762;52.490;13.410;2024-03-02T09:36:00;15.50;95.50
19256;DHT22;9762;52.490;13.410;2024-03-02T09:38:26;15.50;95.50
19256;DHT22;9762;52.490;13.410;2024-03-02T09:40:51;15.40;95.50
19256;DHT22;9762;52.490;13.410;2024-03-02T09:43:17;15.40;95.50
19256;DHT22;9762;52.490;13.410;2024-03-02T09:45:44;15.50;95.60
19256;DHT22;9762;52.490;13.410;2024-03-02T09:48:10;15.50;96.00
19256;DHT22;9762;52.490;13.410;2024-03-02T09:50:36;15.50;95.80
19256;DHT22;9762;52.490;13.410;2024-03-02T09:53:02;15.60;95.60
19256;DHT22;9762;52.490;13.410;2024-03-02T09:55:27;15.60;95.60
19256;DHT22;9762;52.490;13.410;2024-03-02T09:57:53;15.70;95.60
19256;DHT22;9762;52.490;13.410;2024-03-02T10:00:19;15.80;95.30
19256;DHT22;9762;52.490;13.410;2024-03-02T10:02:45;15.80;95.00
19256;DHT22;9762;52.490;13.410;2024-03-02T10:05:24;15.90;94.90
19256;DHT22;9762;52.490;13.410;2024-03-02T10:08:02;15.90;94.90
19256;DHT22;9762;52.490;13.410;2024-03-02T10:10:41;16.00;94.70
19256;DHT22;9762;52.490;13.410;2024-03-02T10:13:09;16.10;94.60
19256;DHT22;9762;52.490;13.410;2024-03-02T10:15:36;16.20;94.40
19256;DHT22;9762;52.490;13.410;2024-03-02T10:18:09;16.30;94.30
19256;DHT22;9762;52.490;13.410;2024-03-02T10:20:36;16.50;94.20
19256;DHT22;9762;52.490;13.410;2024-03-02T10:23:17;16.50;93.80
19256;DHT22;9762;52.490;13.410;2024-03-02T10:25:43;16.60;93.20
19256;DHT22;9762;52.490;13.410;2024-03-02T10:28:09;16.60;93.40
19256;DHT22;9762;52.490;13.410;2024-03-02T10:30:35;16.70;93.10
19256;DHT22;9762;52.490;13.410;2024-03-02T10:33:02;16.70;92.90
19256;DHT22;9762;52.490;13.410;2024-03-02T10:35:28;16.80;93.20
19256;DHT22;9762;52.490;13.410;2024-03-02T10:37:53;16.90;93.00
19256;DHT22;9762;52.490;13.410;2024-03-02T10:40:22;16.90;93.00
19256;DHT22;9762;52.490;13.410;2024-03-02T10:42:49;17.00;93.00
19256;DHT22;9762;52.490;13.410;2024-03-02T10:45:16;17.00;92.80
19256;DHT22;9762;52.490;13.410;2024-03-02T10:47:43;17.10;92.20
19256;DHT22;9762;52.490;13.410;2024-03-02T10:50:09;17.10;91.90
19256;DHT22;9762;52.490;13.410;2024-03-02T10:52:36;17.10;91.90
19256;DHT22;9762;52.490;13.410;2024-03-02T10:55:02;17.20;91.80
19256;DHT22;9762;52.490;13.410;2024-03-02T10:57:40;17.20;92.00
19256;DHT22;9762;52.490;13.410;2024-03-02T11:02:42;17.20;91.00
19256;DHT22;9762;52.490;13.410;2024-03-02T11:05:09;17.20;91.50
19256;DHT22;9762;52.490;13.410;2024-03-02T11:07:37;17.30;91.30
19256;DHT22;9762;52.490;13.410;2024-03-02T11:10:05;17.30;91.20
19256;DHT22;9762;52.490;13.410;2024-03-02T11:12:48;17.40;91.10
19256;DHT22;9762;52.490;13.410;2024-03-02T11:15:18;17.50;91.40
19256;DHT22;9762;52.490;13.410;2024-03-02T11:17:47;17.50;91.20
19256;DHT22;9762;52.490;13.410;2024-03-02T11:20:13;17.60;90.90
19256;DHT22;9762;52.490;13.410;2024-03-02T11:22:40;17.60;90.40
19256;DHT22;9762;52.490;13.410;2024-03-02T11:25:26;17.80;90.80
19256;DHT22;9762;52.490;13.410;2024-03-02T11:33:08;18.10;90.00
19256;DHT22;9762;52.490;13.410;2024-03-02T11:35:37;18.20;90.00
19256;DHT22;9762;52.490;13.410;2024-03-02T11:38:03;18.30;89.70
19256;DHT22;9762;52.490;13.410;2024-03-02T11:40:30;18.40;89.40
19256;DHT22;9762;52.490;13.410;2024-03-02T11:42:56;18.40;88.70
19256;DHT22;9762;52.490;13.410;2024-03-02T11:45:23;18.50;89.60
19256;DHT22;9762;52.490;13.410;2024-03-02T11:47:57;18.50;87.90
19256;DHT22;9762;52.490;13.410;2024-03-02T11:50:40;18.50;87.80
19256;DHT22;9762;52.490;13.410;2024-03-02T11:53:06;18.60;87.50
19256;DHT22;9762;52.490;13.410;2024-03-02T11:55:35;18.50;85.20
19256;DHT22;9762;52.490;13.410;2024-03-02T11:58:05;18.60;85.50
19256;DHT22;9762;52.490;13.410;2024-03-02T12:00:31;18.50;85.60
19256;DHT22;9762;52.490;13.410;2024-03-02T12:03:07;18.60;85.90
19256;DHT22;9762;52.490;13.410;2024-03-02T12:05:33;18.60;85.30
19256;DHT22;9762;52.490;13.410;2024-03-02T12:08:01;18.60;85.50
19256;DHT22;9762;52.490;13.410;2024-03-02T12:10:28;18.70;86.30
19256;DHT22;9762;52.490;13.410;2024-03-02T12:13:01;18.80;85.40
19256;DHT22;9762;52.490;13.410;2024-03-02T12:15:28;19.00;83.90
19256;DHT22;9762;52.490;13.410;2024-03-02T12:17:55;19.00;83.00
19256;DHT22;9762;52.490;13.410;2024-03-02T12:20:21;19.10;83.10
19256;DHT22;9762;52.490;13.410;2024-03-02T12:22:50;19.10;83.00
19256;DHT22;9762;52.490;13.410;2024-03-02T12:25:16;19.20;83.20
19256;DHT22;9762;52.490;13.410;2024-03-02T12:27:42;19.20;82.10
19256;DHT22;9762;52.490;13.410;2024-03-02T12:30:09;19.20;81.80
19256;DHT22;9762;52.490;13.410;2024-03-02T12:32:37;19.30;82.20
19256;DHT22;9762;52.490;13.410;2024-03-02T12:35:05;19.40;82.20
19256;DHT22;9762;52.490;13.410;2024-03-02T12:37:31;19.50;82.60
19256;DHT22;9762;52.490;13.410;2024-03-02T12:39:56;19.70;82.60
19256;DHT22;9762;52.490;13.410;2024-03-02T12:42:24;19.90;81.50
19256;DHT22;9762;52.490;13.410;2024-03-02T12:44:52;20.30;82.90
19256;DHT22;9762;52.490;13.410;2024-03-02T12:47:21;20.80;82.50
19256;DHT22;9762;52.490;13.410;2024-03-02T12:49:47;21.20;81.50
19256;DHT22;9762;52.490;13.410;2024-03-02T12:52:13;21.70;79.20
19256;DHT22;9762;52.490;13.410;2024-03-02T12:54:39;22.20;78.40
19256;DHT22;9762;52.490;13.410;2024-03-02T12:57:04;22.50;74.60
19256;DHT22;9762;52.490;13.410;2024-03-02T12:59:30;22.80;72.50
19256;DHT22;9762;52.490;13.410;2024-03-02T13:01:57;23.10;71.90
19256;DHT22;9762;52.490;13.410;2024-03-02T13:04:27;23.40;70.00
19256;DHT22;9762;52.490;13.410;2024-03-02T13:06:55;23.60;69.30
19256;DHT22;9762;52.490;13.410;2024-03-02T13:09:24;23.90;67.30
19256;DHT22;9762;52.490;13.410;2024-03-02T13:11:50;24.10;68.50
19256;DHT22;9762;52.490;13.410;2024-03-02T13:14:15;24.30;64.90
19256;DHT22;9762;52.490;13.410;2024-03-02T13:16:42;24.40;65.30
19256;DHT22;9762;52.490;13.410;2024-03-02T13:19:14;24.50;66.00
19256;DHT22;9762;52.490;13.410;2024-03-02T13:21:39;24.60;63.60
19256;DHT22;9762;52.490;13.410;2024-03-02T13:24:05;24.70;63.00
19256;DHT22;9762;52.490;13.410;2024-03-02T13:26:31;24.80;64.00
19256;DHT22;9762;52.490;13.410;2024-03-02T13:28:57;25.00;62.90
19256;DHT22;9762;52.490;13.410;2024-03-02T13:31:23;25.10;62.20
19256;DHT22;9762;52.490;13.410;2024-03-02T13:33:48;25.10;60.40
19256;DHT22;9762;52.490;13.410;2024-03-02T13:36:14;25.10;61.00
19256;DHT22;9762;52.490;13.410;2024-03-02T13:38:39;25.20;60.70
19256;DHT22;9762;52.490;13.410;2024-03-02T13:41:05;25.10;60.00
19256;DHT22;9762;52.490;13.410;2024-03-02T13:43:31;25.20;60.10
19256;DHT22;9762;52.490;13.410;2024-03-02T13:45:58;25.10;59.40
19256;DHT22;9762;52.490;13.410;2024-03-02T13:48:24;25.10;59.90
19256;DHT22;9762;52.490;13.410;2024-03-02T13:50:51;25.00;59.80
19256;DHT22;9762;52.490;13.410;2024-03-02T13:53:18;25.00;60.00
19256;DHT22;9762;52.490;13.410;2024-03-02T13:55:44;24.90;59.80
19256;DHT22;9762;52.490;13.410;2024-03-02T13:58:10;24.90;59.60
19256;DHT22;9762;52.490;13.410;2024-03-02T14:00:37;24.80;59.80
19256;DHT22;9762;52.490;13.410;2024-03-02T14:03:04;24.60;60.00
19256;DHT22;9762;52.490;13.410;2024-03-02T14:05:31;24.50;59.10
19256;DHT22;9762;52.490;13.410;2024-03-02T14:07:57;24.30;59.80
19256;DHT22;9762;52.490;13.410;2024-03-02T14:10:22;24.10;59.90
19256;DHT22;9762;52.490;13.410;2024-03-02T14:12:49;24.00;60.70
19256;DHT22;9762;52.490;13.410;2024-03-02T14:15:14;23.90;59.80
19256;DHT22;9762;52.490;13.410;2024-03-02T14:17:40;23.80;60.40
19256;DHT22;9762;52.490;13.410;2024-03-02T14:20:06;23.60;60.90
19256;DHT22;9762;52.490;13.410;2024-03-02T14:22:32;23.50;60.90
19256;DHT22;9762;52.490;13.410;2024-03-02T14:24:59;23.30;61.40
19256;DHT22;9762;52.490;13.410;2024-03-02T14:27:25;23.20;62.50
19256;DHT22;9762;52.490;13.410;2024-03-02T14:29:51;22.90;61.80
19256;DHT22;9762;52.490;13.410;2024-03-02T14:32:16;22.80;61.90
19256;DHT22;9762;52.490;13.410;2024-03-02T14:34:42;22.60;62.60
19256;DHT22;9762;52.490;13.410;2024-03-02T14:37:08;22.40;62.30
19256;DHT22;9762;52.490;13.410;2024-03-02T14:39:34;22.20;63.60
19256;DHT22;9762;52.490;13.410;2024-03-02T14:42:01;22.10;64.40
19256;DHT22;9762;52.490;13.410;2024-03-02T14:44:27;22.00;64.70
19256;DHT22;9762;52.490;13.410;2024-03-02T14:46:52;21.90;65.10
19256;DHT22;9762;52.490;13.410;2024-03-02T14:49:18;21.80;65.40
19256;DHT22;9762;52.490;13.410;2024-03-02T14:51:44;21.70;65.90
19256;DHT22;9762;52.490;13.410;2024-03-02T14:54:10;21.50;66.30
19256;DHT22;9762;52.490;13.410;2024-03-02T14:56:35;21.40;66.40
19256;DHT22;9762;52.490;13.410;2024-03-02T14:59:01;21.30;66.90
19256;DHT22;9762;52.490;13.410;2024-03-02T15:01:26;21.20;67.00
19256;DHT22;9762;52.490;13.410;2024-03-02T15:03:52;21.20;67.80
19256;DHT22;9762;52.490;13.410;2024-03-02T15:06:18;21.10;68.00
19256;DHT22;9762;52.490;13.410;2024-03-02T15:08:44;21.00;68.10
19256;DHT22;9762;52.490;13.410;2024-03-02T15:11:12;20.90;69.00
19256;DHT22;9762;52.490;13.410;2024-03-02T15:13:38;20.80;68.50
19256;DHT22;9762;52.490;13.410;2024-03-02T15:16:04;20.80;68.50
19256;DHT22;9762;52.490;13.410;2024-03-02T15:18:29;20.70;68.50
19256;DHT22;9762;52.490;13.410;2024-03-02T15:20:56;20.60;68.50
19256;DHT22;9762;52.490;13.410;2024-03-02T15:23:21;20.50;68.70
19256;DHT22;9762;52.490;13.410;2024-03-02T15:25:47;20.30;69.10
19256;DHT22;9762;52.490;13.410;2024-03-02T15:28:13;20.30;69.40
19256;DHT22;9762;52.490;13.410;2024-03-02T15:30:38;20.20;70.00
19256;DHT22;9762;52.490;13.410;2024-03-02T15:33:04;20.20;70.40
19256;DHT22;9762;52.490;13.410;2024-03-02T15:35:30;20.10;71.00
19256;DHT22;9762;52.490;13.410;2024-03-02T15:37:56;20.10;71.10